createdAt,value
2018-11-28T00:02:56.370Z,7.67
2018-11-28T00:07:00.051Z,6.87
2018-11-28T00:11:03.618Z,7.03
2018-11-28T00:15:08.453Z,7.97
2018-11-28T00:19:12.052Z,6.90
2018-11-28T00:23:15.615Z,6.83
2018-11-28T00:27:19.144Z,7.37
2018-11-28T00:31:22.707Z,7.87
2018-11-28T00:35:26.265Z,8.07
2018-11-28T00:39:29.919Z,7.30
2018-11-28T00:43:33.415Z,7.27
2018-11-28T00:47:36.907Z,8.47
2018-11-28T00:51:40.787Z,8.23
2018-11-28T00:55:48.457Z,8.60
2018-11-28T00:59:47.811Z,8.73
2018-11-28T01:03:51.417Z,8.13
2018-11-28T01:07:55.796Z,9.30
2018-11-28T01:11:59.248Z,8.20
2018-11-28T01:16:05.020Z,8.80
2018-11-28T01:20:10.831Z,9.07
2018-11-28T01:24:14.315Z,9.27
2018-11-28T01:28:17.848Z,8.97
2018-11-28T01:32:21.331Z,8.83
2018-11-28T01:36:24.836Z,8.90
2018-11-28T01:40:28.364Z,8.53
2018-11-28T01:44:31.937Z,8.77
2018-11-28T01:48:35.451Z,8.80
2018-11-28T01:52:39.082Z,8.50
2018-11-28T01:56:42.535Z,7.67
2018-11-28T02:00:45.976Z,8.33
2018-11-28T02:04:49.525Z,7.87
2018-11-28T02:08:53.455Z,8.13
2018-11-28T02:12:56.968Z,7.63
2018-11-28T02:17:00.748Z,6.30
2018-11-28T02:21:04.329Z,7.03
2018-11-28T02:25:09.340Z,7.23
2018-11-28T02:29:14.192Z,8.07
2018-11-28T02:33:17.685Z,6.77
2018-11-28T02:37:21.235Z,6.57
2018-11-28T02:41:24.793Z,6.47
2018-11-28T02:45:28.273Z,6.73
2018-11-28T02:49:31.792Z,7.00
2018-11-28T02:53:35.410Z,6.40
2018-11-28T02:57:39.159Z,6.93
2018-11-28T03:01:42.639Z,6.37
2018-11-28T03:05:46.277Z,6.50
2018-11-28T03:09:49.803Z,6.87
2018-11-28T03:13:53.326Z,6.87
2018-11-28T03:17:56.837Z,6.00
2018-11-28T03:22:00.330Z,6.63
2018-11-28T03:26:03.904Z,6.57
2018-11-28T03:30:12.206Z,6.60
2018-11-28T03:34:15.658Z,6.73
2018-11-28T03:38:19.233Z,5.70
2018-11-28T03:42:22.828Z,6.37
2018-11-28T03:46:26.351Z,6.10
2018-11-28T03:50:29.845Z,6.70
2018-11-28T03:54:33.371Z,6.43
2018-11-28T03:58:36.955Z,6.67
2018-11-28T04:02:40.498Z,6.57
2018-11-28T04:06:44.109Z,6.77
2018-11-28T04:10:47.647Z,6.47
2018-11-28T04:14:51.185Z,6.17
2018-11-28T04:18:54.715Z,7.03
2018-11-28T04:22:58.334Z,6.80
2018-11-28T04:27:01.877Z,6.53
2018-11-28T04:31:05.950Z,5.80
2018-11-28T04:35:10.872Z,6.43
2018-11-28T04:39:14.445Z,5.87
2018-11-28T04:43:18.040Z,6.53
2018-11-28T04:47:21.624Z,5.87
2018-11-28T04:51:25.127Z,6.13
2018-11-28T04:55:28.671Z,6.00
2018-11-28T04:59:32.345Z,6.90
2018-11-28T05:03:37.016Z,7.00
2018-11-28T05:07:39.888Z,5.87
2018-11-28T05:11:43.463Z,6.27
2018-11-28T05:15:47.017Z,6.30
2018-11-28T05:19:50.579Z,7.10
2018-11-28T05:23:54.114Z,5.87
2018-11-28T05:27:58.759Z,6.77
2018-11-28T05:32:02.374Z,7.00
2018-11-28T05:36:06.092Z,6.27
2018-11-28T05:40:29.891Z,6.53
2018-11-28T05:44:33.476Z,6.40
2018-11-28T05:48:37.033Z,6.03
2018-11-28T05:52:40.591Z,5.70
2018-11-28T05:56:44.081Z,6.27
2018-11-28T06:00:47.603Z,6.30
2018-11-28T06:04:51.088Z,6.27
2018-11-28T06:08:54.656Z,5.90
2018-11-28T06:12:58.251Z,5.33
2018-11-28T06:17:01.705Z,5.73
2018-11-28T06:21:05.633Z,5.27
2018-11-28T06:25:15.953Z,5.13
2018-11-28T06:29:14.503Z,5.53
2018-11-28T06:33:18.162Z,5.10
2018-11-28T06:37:21.771Z,5.63
2018-11-28T06:41:25.232Z,5.53
2018-11-28T06:45:28.771Z,5.70
2018-11-28T06:49:32.288Z,6.17
2018-11-28T06:53:36.016Z,6.10
2018-11-28T06:57:39.608Z,5.97
2018-11-28T07:01:43.198Z,6.37
2018-11-28T07:05:46.700Z,5.80
2018-11-28T07:09:50.367Z,5.70
2018-11-28T07:13:53.907Z,5.97
2018-11-28T07:18:07.343Z,6.70
2018-11-28T07:22:10.845Z,6.03
2018-11-28T07:26:14.398Z,5.70
2018-11-28T07:30:20.166Z,5.60
2018-11-28T07:34:23.723Z,5.23
2018-11-28T07:38:27.248Z,5.87
2018-11-28T07:42:30.786Z,5.37
2018-11-28T07:46:34.386Z,6.10
2018-11-28T07:50:37.964Z,5.80
2018-11-28T07:54:41.505Z,6.57
2018-11-28T07:58:44.992Z,5.50
2018-11-28T08:11:39.465Z,5.97
2018-11-28T08:15:43.056Z,6.10
2018-11-28T08:19:46.650Z,5.83
2018-11-28T08:23:50.601Z,6.40
2018-11-28T08:27:54.213Z,5.90
2018-11-28T08:31:57.849Z,5.93
2018-11-28T08:36:01.412Z,6.23
2018-11-28T08:40:06.551Z,6.83
2018-11-28T08:44:10.191Z,6.67
2018-11-28T08:48:18.030Z,5.50
2018-11-28T08:52:21.620Z,6.20
2018-11-28T08:56:26.144Z,6.20
2018-11-28T09:00:29.722Z,6.03
2018-11-28T09:04:33.262Z,6.20
2018-11-28T09:08:36.934Z,5.57
2018-11-28T09:12:40.518Z,6.17
2018-11-28T09:16:44.120Z,6.10
2018-11-28T09:20:47.733Z,5.33
2018-11-28T09:24:51.196Z,5.83
2018-11-28T09:28:55.673Z,5.97
2018-11-28T09:32:59.255Z,6.20
2018-11-28T09:37:02.897Z,5.73
2018-11-28T09:41:06.508Z,6.27
2018-11-28T09:45:14.372Z,5.70
2018-11-28T09:49:18.014Z,5.73
2018-11-28T09:53:21.538Z,6.23
2018-11-28T09:57:25.175Z,6.00
2018-11-28T10:01:28.829Z,6.83
2018-11-28T10:05:34.545Z,6.67
2018-11-28T10:09:38.155Z,6.90
2018-11-28T10:13:41.781Z,6.43
2018-11-28T10:17:45.563Z,7.23
2018-11-28T10:21:49.033Z,6.10
2018-11-28T10:25:52.560Z,6.47
2018-11-28T10:29:56.115Z,6.37
2018-11-28T10:33:59.660Z,6.93
2018-11-28T10:38:05.001Z,6.57
2018-11-28T10:42:08.511Z,6.60
2018-11-28T10:46:12.124Z,6.70
2018-11-28T10:50:16.040Z,5.13
2018-11-28T10:54:19.610Z,5.43
2018-11-28T10:58:23.161Z,5.60
2018-11-28T11:02:31.991Z,4.60
2018-11-28T11:07:42.369Z,4.70
2018-11-28T11:11:51.401Z,4.90
2018-11-28T11:15:59.458Z,5.83
2018-11-28T11:20:03.209Z,6.70
2018-11-28T11:24:06.793Z,5.57
2018-11-28T11:28:10.271Z,4.73
2018-11-28T11:32:13.884Z,5.50
2018-11-28T11:36:17.501Z,5.63
2018-11-28T11:40:21.220Z,5.27
2018-11-28T11:44:24.754Z,5.40
2018-11-28T11:48:28.344Z,5.90
2018-11-28T11:52:32.143Z,5.67
2018-11-28T11:56:35.632Z,5.70
2018-11-28T12:00:42.299Z,5.17
2018-11-28T12:04:45.950Z,5.17
2018-11-28T12:08:49.767Z,6.00
2018-11-28T12:12:53.261Z,5.50
2018-11-28T12:16:57.208Z,6.53
2018-11-28T12:21:02.903Z,5.77
2018-11-28T12:25:07.138Z,5.97
2018-11-28T12:29:14.110Z,6.43
2018-11-28T12:33:26.112Z,6.33
2018-11-28T12:42:08.049Z,6.07
2018-11-28T12:46:20.993Z,6.00
2018-11-28T12:50:26.804Z,6.93
2018-11-28T12:54:30.312Z,6.53
2018-11-28T12:58:34.152Z,5.87
2018-11-28T13:02:37.702Z,6.00
2018-11-28T13:06:41.209Z,6.70
2018-11-28T13:10:46.540Z,6.23
2018-11-28T13:14:50.134Z,6.00
2018-11-28T13:18:53.743Z,6.00
2018-11-28T13:22:58.536Z,6.17
2018-11-28T13:27:02.419Z,6.30
2018-11-28T13:31:06.083Z,6.17
2018-11-28T13:35:09.812Z,6.50
2018-11-28T13:39:13.724Z,6.70
2018-11-28T13:43:17.384Z,6.47
2018-11-28T13:47:55.593Z,6.13
2018-11-28T13:52:03.601Z,6.13
2018-11-28T14:00:10.946Z,6.13
2018-11-28T14:04:14.513Z,5.53
2018-11-28T14:08:19.760Z,6.03
2018-11-28T14:12:25.625Z,6.10
2018-11-28T14:16:29.104Z,6.17
2018-11-28T14:20:32.612Z,6.60
2018-11-28T14:24:36.061Z,6.40
2018-11-28T14:28:39.876Z,6.47
2018-11-28T14:32:44.883Z,6.03
2018-11-28T14:36:51.446Z,6.60
2018-11-28T14:40:54.938Z,6.67
2018-11-28T14:44:59.439Z,6.97
2018-11-28T14:49:03.201Z,6.60
2018-11-28T14:53:07.242Z,7.07
2018-11-28T14:57:10.881Z,6.70
2018-11-28T15:01:14.586Z,8.03
2018-11-28T15:07:32.747Z,7.50
2018-11-28T15:11:46.297Z,7.77
2018-11-28T15:15:49.950Z,7.27
2018-11-28T15:19:53.626Z,7.17
2018-11-28T15:23:57.560Z,17.50
2018-11-28T15:28:43.098Z,6.33
2018-11-28T15:32:46.695Z,7.37
2018-11-28T15:36:50.227Z,7.67
2018-11-28T15:40:54.205Z,7.50
2018-11-28T15:44:57.756Z,8.00
2018-11-28T15:49:03.214Z,7.73
2018-11-28T15:53:07.094Z,7.67
2018-11-28T15:57:10.711Z,7.33
2018-11-28T16:01:14.542Z,8.30
2018-11-28T16:05:18.179Z,10.37
2018-11-28T16:09:27.521Z,10.90
2018-11-28T16:13:31.126Z,11.93
2018-11-28T16:17:34.708Z,11.67
2018-11-28T16:21:38.411Z,11.73
2018-11-28T16:25:42.015Z,12.10
2018-11-28T16:29:45.638Z,14.00
2018-11-28T16:33:49.349Z,12.90
2018-11-28T16:37:52.810Z,14.07
2018-11-28T16:41:56.397Z,14.93
2018-11-28T16:46:00.027Z,16.20
2018-11-28T16:50:03.658Z,15.73
2018-11-28T16:54:07.349Z,17.07
2018-11-28T16:58:10.884Z,19.40
2018-11-28T17:02:14.561Z,17.53
2018-11-28T17:06:18.108Z,18.77
2018-11-28T17:10:26.076Z,18.73
2018-11-28T17:14:29.854Z,28.50
2018-11-28T17:18:33.570Z,17.73
2018-11-28T17:22:37.074Z,17.50
2018-11-28T17:26:40.737Z,16.73
2018-11-28T17:30:43.950Z,17.07
2018-11-28T17:34:47.550Z,17.33
2018-11-28T17:38:51.151Z,18.07
2018-11-28T17:42:56.127Z,17.17
2018-11-28T17:46:59.653Z,17.77
2018-11-28T17:51:03.420Z,17.33
2018-11-28T17:55:11.550Z,16.00
2018-11-28T17:59:16.167Z,15.80
2018-11-28T18:03:22.283Z,16.97
2018-11-28T18:07:26.463Z,17.40
2018-11-28T18:11:30.320Z,16.53
2018-11-28T18:15:35.280Z,15.83
2018-11-28T18:19:38.920Z,15.77
2018-11-28T18:23:43.446Z,16.27
2018-11-28T18:27:47.167Z,16.73
2018-11-28T18:31:50.908Z,15.77
2018-11-28T18:35:54.502Z,16.40
2018-11-28T18:39:58.848Z,15.00
2018-11-28T18:44:01.871Z,15.47
2018-11-28T18:48:05.606Z,28.47
2018-11-28T18:52:09.325Z,16.53
2018-11-28T18:56:12.864Z,15.63
2018-11-28T19:00:22.337Z,14.47
2018-11-28T19:04:26.152Z,15.83
2018-11-28T19:08:30.312Z,14.67
2018-11-28T19:12:34.264Z,15.97
2018-11-28T19:16:38.956Z,15.73
2018-11-28T19:20:42.589Z,15.27
2018-11-28T19:24:46.360Z,16.17
2018-11-28T19:28:50.455Z,16.40
2018-11-28T19:32:54.077Z,16.60
2018-11-28T19:36:57.923Z,16.30
2018-11-28T19:41:04.296Z,15.87
2018-11-28T19:45:09.546Z,17.33
2018-11-28T19:49:13.394Z,18.17
2018-11-28T19:53:16.960Z,32.50
2018-11-28T19:57:20.768Z,27.93
2018-11-28T20:01:24.623Z,18.70
2018-11-28T20:05:28.594Z,16.10
2018-11-28T20:09:34.460Z,16.03
2018-11-28T20:13:39.276Z,14.40
2018-11-28T20:17:44.513Z,14.80
2018-11-28T20:21:56.084Z,15.10
2018-11-28T20:26:00.072Z,14.27
2018-11-28T20:30:05.311Z,15.07
2018-11-28T20:34:15.620Z,15.07
2018-11-28T20:38:27.612Z,13.60
2018-11-28T20:42:36.669Z,14.97
2018-11-28T20:46:51.320Z,14.00
2018-11-28T20:55:28.183Z,41.77
2018-11-28T20:59:38.158Z,15.50
2018-11-28T21:03:36.943Z,15.93
2018-11-28T21:07:41.629Z,14.43
2018-11-28T21:11:45.447Z,15.07
2018-11-28T21:15:49.030Z,14.70
2018-11-28T21:19:52.626Z,13.93
2018-11-28T21:23:56.306Z,14.67
2018-11-28T21:28:00.082Z,14.50
2018-11-28T21:32:03.584Z,14.00
2018-11-28T21:36:07.694Z,13.80
2018-11-28T21:40:11.784Z,13.67
2018-11-28T21:44:15.692Z,14.33
2018-11-28T21:48:20.632Z,13.70
2018-11-28T21:52:25.504Z,14.40
2018-11-28T21:56:29.163Z,13.83
2018-11-28T22:00:32.733Z,14.30
2018-11-28T22:04:36.259Z,14.03
2018-11-28T22:08:39.878Z,13.93
2018-11-28T22:12:43.739Z,13.10
2018-11-28T22:16:47.379Z,13.13
2018-11-28T22:20:50.988Z,12.87
2018-11-28T22:24:54.632Z,13.40
2018-11-28T22:28:58.476Z,13.43
2018-11-28T22:33:02.134Z,12.63
2018-11-28T22:37:05.758Z,13.03
2018-11-28T22:41:09.364Z,13.27
2018-11-28T22:45:14.389Z,14.13
2018-11-28T22:49:17.924Z,14.43
2018-11-28T22:53:21.919Z,13.10
2018-11-28T22:57:25.723Z,14.03
2018-11-28T23:01:40.399Z,14.30
2018-11-28T23:05:51.076Z,14.47
2018-11-28T23:09:54.620Z,14.47
2018-11-28T23:13:58.175Z,14.03
2018-11-28T23:18:01.705Z,13.67
2018-11-28T23:22:05.288Z,13.90
2018-11-28T23:26:08.954Z,13.17
2018-11-28T23:30:17.388Z,13.67
2018-11-28T23:34:20.943Z,14.20
2018-11-28T23:38:24.438Z,14.27
2018-11-28T23:42:27.979Z,14.20
2018-11-28T23:46:31.512Z,15.27
2018-11-28T23:50:35.040Z,14.10
2018-11-28T23:54:38.604Z,13.80
2018-11-28T23:58:42.238Z,13.70
